createdAt,value
2022-09-11T00:05:14.874Z,98.12
2022-09-11T00:10:40.733Z,98.28
2022-09-11T00:16:10.997Z,98.63
2022-09-11T00:21:35.201Z,99.32
2022-09-11T00:26:58.952Z,99.52
2022-09-11T00:32:25.063Z,99.87
2022-09-11T00:37:49.010Z,99.96
2022-09-11T00:43:11.263Z,99.89
2022-09-11T00:48:38.853Z,100.00
2022-09-11T00:54:08.122Z,100.00
2022-09-11T00:59:32.428Z,100.00
2022-09-11T01:04:56.643Z,100.00
2022-09-11T01:10:19.492Z,100.00
2022-09-11T01:16:14.266Z,100.00
2022-09-11T01:22:08.272Z,100.00
2022-09-11T01:27:46.031Z,100.00
2022-09-11T01:33:25.152Z,100.00
2022-09-11T01:39:09.872Z,100.00
2022-09-11T01:44:43.432Z,100.00
2022-09-11T01:50:14.880Z,100.00
2022-09-11T01:55:40.992Z,100.00
2022-09-11T02:01:13.454Z,100.00
2022-09-11T02:06:43.232Z,100.00
2022-09-11T02:12:07.642Z,100.00
2022-09-11T02:17:54.753Z,100.00
2022-09-11T02:23:22.750Z,100.00
2022-09-11T02:28:47.693Z,100.00
2022-09-11T02:34:13.792Z,100.00
2022-09-11T02:39:48.883Z,100.00
2022-09-11T02:45:16.702Z,100.00
2022-09-11T02:50:46.502Z,100.00
2022-09-11T02:56:15.432Z,100.00
2022-09-11T03:02:10.631Z,100.00
2022-09-11T03:07:33.891Z,100.00
2022-09-11T03:12:56.492Z,100.00
2022-09-11T03:18:18.973Z,100.00
2022-09-11T03:23:41.418Z,100.00
2022-09-11T03:29:05.041Z,100.00
2022-09-11T03:34:28.156Z,100.00
2022-09-11T03:39:55.469Z,100.00
2022-09-11T03:45:17.862Z,100.00
2022-09-11T03:50:42.742Z,100.00
2022-09-11T03:56:05.602Z,100.00
2022-09-11T04:01:36.302Z,100.00
2022-09-11T04:06:58.840Z,100.00
2022-09-11T04:12:22.378Z,100.00
2022-09-11T04:17:44.763Z,100.00
2022-09-11T04:23:07.020Z,100.00
2022-09-11T04:28:31.082Z,100.00
2022-09-11T04:33:57.767Z,100.00
2022-09-11T04:39:25.202Z,100.00
2022-09-11T04:44:47.660Z,100.00
2022-09-11T04:50:10.024Z,100.00
2022-09-11T04:55:32.265Z,100.00
2022-09-11T05:00:55.388Z,100.00
2022-09-11T05:06:17.620Z,100.00
2022-09-11T05:11:42.582Z,100.00
2022-09-11T05:17:08.413Z,100.00
2022-09-11T05:22:37.742Z,100.00
2022-09-11T05:28:02.409Z,100.00
2022-09-11T05:39:42.552Z,97.63
2022-09-11T05:45:07.733Z,96.23
2022-09-11T05:50:32.393Z,94.44
2022-09-11T05:55:55.892Z,91.02
2022-09-11T06:01:24.713Z,88.24
2022-09-11T06:14:13.712Z,81.86
2022-09-11T06:19:38.543Z,79.86
2022-09-11T06:25:00.500Z,79.40
2022-09-11T06:30:23.683Z,74.94
2022-09-11T06:35:46.570Z,74.84
2022-09-11T06:41:12.382Z,72.52
2022-09-11T06:46:35.903Z,71.81
2022-09-11T06:51:59.463Z,70.35
2022-09-11T06:57:22.732Z,71.79
2022-09-11T07:02:45.742Z,69.53
2022-09-11T07:08:08.931Z,66.99
2022-09-11T07:13:37.301Z,67.87
2022-09-11T07:19:04.912Z,66.23
2022-09-11T07:24:29.951Z,65.69
2022-09-11T07:29:52.184Z,62.72
2022-09-11T07:35:24.222Z,62.24
2022-09-11T07:40:49.904Z,62.18
2022-09-11T07:46:13.252Z,58.30
2022-09-11T07:51:35.961Z,57.93
2022-09-11T07:57:00.912Z,56.27
2022-09-11T08:02:24.369Z,55.78
2022-09-11T08:07:48.394Z,56.95
2022-09-11T08:13:15.774Z,55.34
2022-09-11T08:18:41.534Z,53.72
2022-09-11T08:24:07.971Z,52.87
2022-09-11T08:29:34.452Z,52.53
2022-09-11T08:35:04.124Z,53.78
2022-09-11T08:40:32.464Z,51.63
2022-09-11T08:46:10.006Z,49.90
2022-09-11T08:51:36.542Z,51.63
2022-09-11T08:57:31.269Z,51.81
2022-09-11T09:03:13.283Z,50.67
2022-09-11T09:09:01.174Z,51.81
2022-09-11T09:14:52.629Z,50.66
2022-09-11T09:20:21.734Z,50.13
2022-09-11T09:25:46.484Z,50.75
2022-09-11T09:31:11.686Z,51.19
2022-09-11T09:37:10.881Z,51.88
2022-09-11T09:42:59.413Z,53.09
2022-09-11T09:48:21.452Z,53.52
2022-09-11T09:53:52.274Z,52.13
2022-09-11T09:59:23.894Z,51.71
2022-09-11T10:04:47.978Z,51.15
2022-09-11T10:10:23.502Z,50.67
2022-09-11T10:15:48.912Z,50.03
2022-09-11T10:21:21.734Z,51.19
2022-09-11T10:26:51.388Z,50.61
2022-09-11T10:32:19.053Z,48.32
2022-09-11T10:37:40.852Z,49.49
2022-09-11T10:43:03.593Z,50.47
2022-09-11T10:48:25.853Z,50.44
2022-09-11T10:54:00.452Z,51.19
2022-09-11T10:59:29.685Z,51.14
2022-09-11T11:04:52.743Z,51.08
2022-09-11T11:10:38.678Z,51.55
2022-09-11T11:16:34.364Z,52.15
2022-09-11T11:22:20.953Z,53.25
2022-09-11T11:28:04.405Z,53.86
2022-09-11T11:33:54.843Z,54.55
2022-09-11T11:39:26.182Z,53.83
2022-09-11T11:44:54.894Z,54.33
2022-09-11T11:50:34.062Z,52.82
2022-09-11T11:56:15.482Z,53.45
2022-09-11T12:01:52.064Z,53.98
2022-09-11T12:07:23.252Z,54.20
2022-09-11T12:12:48.842Z,54.94
2022-09-11T12:18:16.764Z,55.37
2022-09-11T12:24:00.584Z,55.93
2022-09-11T12:29:31.242Z,53.34
2022-09-11T12:35:03.513Z,53.78
2022-09-11T12:40:52.827Z,52.13
2022-09-11T12:46:31.590Z,52.19
2022-09-11T12:52:17.416Z,52.27
2022-09-11T12:57:46.915Z,52.47
2022-09-11T13:09:47.575Z,52.51
2022-09-11T13:15:33.097Z,52.47
2022-09-11T13:21:11.724Z,52.60
2022-09-11T13:26:34.100Z,52.42
2022-09-11T13:31:58.884Z,52.65
2022-09-11T13:37:41.812Z,51.88
2022-09-11T13:43:04.603Z,52.50
2022-09-11T13:48:27.095Z,52.71
2022-09-11T13:54:13.731Z,53.10
2022-09-11T13:59:50.083Z,53.36
2022-09-11T14:05:27.222Z,53.59
2022-09-11T14:10:56.365Z,53.56
2022-09-11T14:16:29.944Z,54.30
2022-09-11T14:21:58.902Z,54.48
2022-09-11T14:27:34.004Z,54.89
2022-09-11T14:33:37.025Z,55.60
2022-09-11T14:38:59.402Z,55.75
2022-09-11T14:44:26.922Z,55.29
2022-09-11T14:49:55.810Z,55.87
2022-09-11T14:55:20.384Z,56.40
2022-09-11T15:00:43.763Z,56.54
2022-09-11T15:06:16.798Z,57.14
2022-09-11T15:11:42.524Z,57.53
2022-09-11T15:17:10.622Z,58.69
2022-09-11T15:22:33.391Z,59.31
2022-09-11T15:28:01.182Z,60.10
2022-09-11T15:33:25.414Z,60.41
2022-09-11T15:38:58.322Z,60.74
2022-09-11T15:44:25.871Z,61.54
2022-09-11T15:49:56.243Z,62.59
2022-09-11T15:55:27.132Z,63.31
2022-09-11T16:00:49.747Z,64.30
2022-09-11T16:06:12.111Z,65.18
2022-09-11T16:11:34.665Z,65.98
2022-09-11T16:16:58.429Z,67.06
2022-09-11T16:22:20.883Z,67.63
2022-09-11T16:27:44.140Z,68.58
2022-09-11T16:33:06.232Z,69.37
2022-09-11T16:38:29.742Z,70.31
2022-09-11T16:43:53.241Z,70.82
2022-09-11T16:49:18.243Z,71.88
2022-09-11T16:54:40.192Z,72.36
2022-09-11T17:00:02.461Z,73.33
2022-09-11T17:05:28.932Z,73.68
2022-09-11T17:10:59.802Z,74.66
2022-09-11T17:16:26.899Z,75.50
2022-09-11T17:21:51.963Z,76.03
2022-09-11T17:27:17.341Z,76.45
2022-09-11T17:32:39.805Z,76.71
2022-09-11T17:38:02.710Z,77.55
2022-09-11T17:43:25.577Z,78.24
2022-09-11T17:48:48.422Z,78.40
2022-09-11T17:54:10.673Z,79.15
2022-09-11T17:59:36.082Z,79.54
2022-09-11T18:04:58.192Z,80.68
2022-09-11T18:10:24.072Z,80.95
2022-09-11T18:15:46.217Z,81.71
2022-09-11T18:21:09.942Z,81.95
2022-09-11T18:26:37.132Z,82.78
2022-09-11T18:32:00.180Z,83.29
2022-09-11T18:37:22.642Z,83.67
2022-09-11T18:42:44.346Z,83.89
2022-09-11T18:48:06.443Z,84.55
2022-09-11T18:53:28.312Z,84.85
2022-09-11T18:58:52.620Z,85.22
2022-09-11T19:04:15.282Z,85.32
2022-09-11T19:09:37.715Z,86.39
2022-09-11T19:15:00.430Z,86.40
2022-09-11T19:20:26.162Z,86.79
2022-09-11T19:25:48.364Z,87.18
2022-09-11T19:31:15.039Z,87.59
2022-09-11T19:36:37.636Z,87.56
2022-09-11T19:42:03.442Z,88.49
2022-09-11T19:47:26.111Z,88.43
2022-09-11T19:52:48.333Z,88.12
2022-09-11T19:58:13.132Z,88.12
2022-09-11T20:03:36.102Z,89.99
2022-09-11T20:09:19.740Z,91.17
2022-09-11T20:14:42.810Z,90.66
2022-09-11T20:20:05.112Z,91.29
2022-09-11T20:25:27.732Z,91.71
2022-09-11T20:30:49.742Z,91.91
2022-09-11T20:36:14.752Z,91.53
2022-09-11T20:41:38.152Z,92.85
2022-09-11T20:47:00.520Z,92.33
2022-09-11T20:52:22.333Z,92.78
2022-09-11T20:57:44.353Z,93.59
2022-09-11T21:03:06.482Z,93.90
2022-09-11T21:08:31.023Z,94.04
2022-09-11T21:13:53.729Z,95.18
2022-09-11T21:19:15.852Z,94.94
2022-09-11T21:24:43.464Z,94.81
2022-09-11T21:30:08.419Z,95.54
2022-09-11T21:35:33.604Z,96.26
2022-09-11T21:41:01.973Z,96.46
2022-09-11T21:46:27.201Z,96.98
2022-09-11T21:51:49.523Z,96.35
2022-09-11T21:57:11.722Z,97.26
2022-09-11T22:02:36.582Z,97.55
2022-09-11T22:07:58.912Z,98.67
2022-09-11T22:13:21.072Z,99.70
2022-09-11T22:18:43.432Z,100.00
2022-09-11T22:24:06.151Z,100.00
2022-09-11T22:29:28.252Z,100.00
2022-09-11T22:34:50.256Z,100.00
2022-09-11T22:40:12.449Z,100.00
2022-09-11T22:45:34.692Z,100.00
2022-09-11T22:50:58.132Z,100.00
2022-09-11T22:56:20.412Z,100.00
2022-09-11T23:01:42.125Z,100.00
2022-09-11T23:07:18.891Z,100.00
2022-09-11T23:12:42.251Z,100.00
2022-09-11T23:18:04.791Z,100.00
2022-09-11T23:23:27.019Z,100.00
2022-09-11T23:28:52.254Z,100.00
2022-09-11T23:34:21.971Z,100.00
2022-09-11T23:39:44.541Z,100.00
2022-09-11T23:45:10.152Z,100.00
2022-09-11T23:50:32.820Z,100.00
2022-09-11T23:55:56.952Z,100.00
